sensor_id;sensor_type;location;lat;lon;timestamp;temperature;humidity
27671;DHT22;15077;49.704;9.908;2023-05-02T00:00:21;13.60;58.80
27671;DHT22;15077;49.704;9.908;2023-05-02T00:02:51;13.60;58.70
27671;DHT22;15077;49.704;9.908;2023-05-02T00:05:17;13.60;58.90
27671;DHT22;15077;49.704;9.908;2023-05-02T00:07:44;13.60;58.70
27671;DHT22;15077;49.704;9.908;2023-05-02T00:10:13;13.60;58.90
27671;DHT22;15077;49.704;9.908;2023-05-02T00:12:40;13.50;58.90
27671;DHT22;15077;49.704;9.908;2023-05-02T00:15:06;13.50;59.00
27671;DHT22;15077;49.704;9.908;2023-05-02T00:17:32;13.50;58.90
27671;DHT22;15077;49.704;9.908;2023-05-02T00:19:58;13.50;59.10
27671;DHT22;15077;49.704;9.908;2023-05-02T00:22:25;13.50;59.20
27671;DHT22;15077;49.704;9.908;2023-05-02T00:24:56;13.50;59.30
27671;DHT22;15077;49.704;9.908;2023-05-02T00:27:22;13.40;59.30
27671;DHT22;15077;49.704;9.908;2023-05-02T00:29:52;13.40;59.20
27671;DHT22;15077;49.704;9.908;2023-05-02T00:32:19;13.40;59.20
27671;DHT22;15077;49.704;9.908;2023-05-02T00:34:46;13.40;59.30
27671;DHT22;15077;49.704;9.908;2023-05-02T00:37:12;13.40;59.10
27671;DHT22;15077;49.704;9.908;2023-05-02T00:39:38;13.40;59.20
27671;DHT22;15077;49.704;9.908;2023-05-02T00:42:04;13.40;59.20
27671;DHT22;15077;49.704;9.908;2023-05-02T00:44:30;13.30;59.20
27671;DHT22;15077;49.704;9.908;2023-05-02T00:46:57;13.30;59.30
27671;DHT22;15077;49.704;9.908;2023-05-02T00:49:26;13.30;59.50
27671;DHT22;15077;49.704;9.908;2023-05-02T00:51:53;13.30;59.40
27671;DHT22;15077;49.704;9.908;2023-05-02T00:54:19;13.30;59.30
27671;DHT22;15077;49.704;9.908;2023-05-02T00:56:45;13.30;59.30
27671;DHT22;15077;49.704;9.908;2023-05-02T00:59:13;13.30;59.30
27671;DHT22;15077;49.704;9.908;2023-05-02T01:01:59;13.30;59.50
27671;DHT22;15077;49.704;9.908;2023-05-02T01:05:27;13.30;59.50
27671;DHT22;15077;49.704;9.908;2023-05-02T01:08:29;13.30;59.70
27671;DHT22;15077;49.704;9.908;2023-05-02T01:11:13;13.30;59.70
27671;DHT22;15077;49.704;9.908;2023-05-02T01:13:42;13.30;59.50
27671;DHT22;15077;49.704;9.908;2023-05-02T01:16:12;13.30;59.50
27671;DHT22;15077;49.704;9.908;2023-05-02T01:18:41;13.20;59.80
27671;DHT22;15077;49.704;9.908;2023-05-02T01:21:10;13.20;60.10
27671;DHT22;15077;49.704;9.908;2023-05-02T01:29:38;13.20;60.20
27671;DHT22;15077;49.704;9.908;2023-05-02T01:32:07;13.20;60.10
27671;DHT22;15077;49.704;9.908;2023-05-02T01:34:37;13.20;60.30
27671;DHT22;15077;49.704;9.908;2023-05-02T01:37:05;13.10;60.40
27671;DHT22;15077;49.704;9.908;2023-05-02T01:39:37;13.10;60.40
27671;DHT22;15077;49.704;9.908;2023-05-02T01:42:05;13.10;61.00
27671;DHT22;15077;49.704;9.908;2023-05-02T01:44:33;13.10;60.90
27671;DHT22;15077;49.704;9.908;2023-05-02T01:47:04;13.10;61.10
27671;DHT22;15077;49.704;9.908;2023-05-02T01:49:36;13.00;61.30
27671;DHT22;15077;49.704;9.908;2023-05-02T01:52:07;13.00;61.60
27671;DHT22;15077;49.704;9.908;2023-05-02T01:54:39;13.00;61.70
27671;DHT22;15077;49.704;9.908;2023-05-02T01:57:08;13.00;61.70
27671;DHT22;15077;49.704;9.908;2023-05-02T01:59:42;12.90;61.80
27671;DHT22;15077;49.704;9.908;2023-05-02T02:02:14;12.90;61.80
27671;DHT22;15077;49.704;9.908;2023-05-02T02:04:43;12.90;61.70
27671;DHT22;15077;49.704;9.908;2023-05-02T02:07:13;12.90;61.70
27671;DHT22;15077;49.704;9.908;2023-05-02T02:09:41;12.90;62.20
27671;DHT22;15077;49.704;9.908;2023-05-02T02:12:20;12.90;61.90
27671;DHT22;15077;49.704;9.908;2023-05-02T02:18:21;12.90;62.40
27671;DHT22;15077;49.704;9.908;2023-05-02T02:20:52;13.00;62.00
27671;DHT22;15077;49.704;9.908;2023-05-02T02:23:22;13.00;62.40
27671;DHT22;15077;49.704;9.908;2023-05-02T02:25:54;13.00;62.10
27671;DHT22;15077;49.704;9.908;2023-05-02T02:28:21;12.90;62.00
27671;DHT22;15077;49.704;9.908;2023-05-02T02:30:48;13.00;62.10
27671;DHT22;15077;49.704;9.908;2023-05-02T02:33:16;13.00;62.10
27671;DHT22;15077;49.704;9.908;2023-05-02T02:35:49;13.00;62.20
27671;DHT22;15077;49.704;9.908;2023-05-02T02:38:31;13.00;62.60
27671;DHT22;15077;49.704;9.908;2023-05-02T02:41:25;13.10;62.70
27671;DHT22;15077;49.704;9.908;2023-05-02T02:44:24;13.10;62.50
27671;DHT22;15077;49.704;9.908;2023-05-02T02:53:02;13.10;62.60
27671;DHT22;15077;49.704;9.908;2023-05-02T02:55:47;13.10;62.60
27671;DHT22;15077;49.704;9.908;2023-05-02T02:58:53;13.10;62.90
27671;DHT22;15077;49.704;9.908;2023-05-02T03:01:24;13.10;62.70
27671;DHT22;15077;49.704;9.908;2023-05-02T03:03:54;13.10;62.70
27671;DHT22;15077;49.704;9.908;2023-05-02T03:06:23;13.00;62.60
27671;DHT22;15077;49.704;9.908;2023-05-02T03:08:51;13.10;62.70
27671;DHT22;15077;49.704;9.908;2023-05-02T03:11:18;13.10;62.70
27671;DHT22;15077;49.704;9.908;2023-05-02T03:13:45;13.10;62.80
27671;DHT22;15077;49.704;9.908;2023-05-02T03:18:52;13.20;63.00
27671;DHT22;15077;49.704;9.908;2023-05-02T03:21:18;13.20;62.90
27671;DHT22;15077;49.704;9.908;2023-05-02T03:23:43;13.20;62.90
27671;DHT22;15077;49.704;9.908;2023-05-02T03:26:09;13.30;62.90
27671;DHT22;15077;49.704;9.908;2023-05-02T03:28:35;13.30;62.90
27671;DHT22;15077;49.704;9.908;2023-05-02T03:31:02;13.30;62.90
27671;DHT22;15077;49.704;9.908;2023-05-02T03:33:30;13.30;63.00
27671;DHT22;15077;49.704;9.908;2023-05-02T03:35:58;13.40;63.10
27671;DHT22;15077;49.704;9.908;2023-05-02T03:38:28;13.40;63.40
27671;DHT22;15077;49.704;9.908;2023-05-02T03:40:58;13.50;63.40
27671;DHT22;15077;49.704;9.908;2023-05-02T03:43:25;13.50;63.50
27671;DHT22;15077;49.704;9.908;2023-05-02T03:45:51;13.50;63.40
27671;DHT22;15077;49.704;9.908;2023-05-02T03:48:17;13.60;63.40
27671;DHT22;15077;49.704;9.908;2023-05-02T03:50:44;13.60;63.50
27671;DHT22;15077;49.704;9.908;2023-05-02T03:53:11;13.70;63.50
27671;DHT22;15077;49.704;9.908;2023-05-02T03:55:39;13.70;63.50
27671;DHT22;15077;49.704;9.908;2023-05-02T03:58:07;13.70;63.40
27671;DHT22;15077;49.704;9.908;2023-05-02T04:00:36;13.80;63.40
27671;DHT22;15077;49.704;9.908;2023-05-02T04:03:04;13.80;63.40
27671;DHT22;15077;49.704;9.908;2023-05-02T04:05:29;13.80;63.50
27671;DHT22;15077;49.704;9.908;2023-05-02T04:07:56;13.90;63.40
27671;DHT22;15077;49.704;9.908;2023-05-02T04:10:22;13.90;63.30
27671;DHT22;15077;49.704;9.908;2023-05-02T04:12:47;13.90;63.30
27671;DHT22;15077;49.704;9.908;2023-05-02T04:15:13;13.90;63.20
27671;DHT22;15077;49.704;9.908;2023-05-02T04:17:39;14.00;63.30
27671;DHT22;15077;49.704;9.908;2023-05-02T04:20:06;13.90;63.10
27671;DHT22;15077;49.704;9.908;2023-05-02T04:22:32;14.00;63.10
27671;DHT22;15077;49.704;9.908;2023-05-02T04:24:58;14.00;63.20
27671;DHT22;15077;49.704;9.908;2023-05-02T04:27:24;14.00;63.30
27671;DHT22;15077;49.704;9.908;2023-05-02T04:29:50;14.00;63.40
27671;DHT22;15077;49.704;9.908;2023-05-02T04:32:17;14.00;63.20
27671;DHT22;15077;49.704;9.908;2023-05-02T04:34:43;14.00;63.20
27671;DHT22;15077;49.704;9.908;2023-05-02T04:37:09;13.90;63.20
27671;DHT22;15077;49.704;9.908;2023-05-02T04:39:35;13.90;63.20
27671;DHT22;15077;49.704;9.908;2023-05-02T04:42:00;13.90;63.10
27671;DHT22;15077;49.704;9.908;2023-05-02T04:44:26;13.90;63.30
27671;DHT22;15077;49.704;9.908;2023-05-02T04:46:52;13.90;63.20
27671;DHT22;15077;49.704;9.908;2023-05-02T04:49:18;13.90;63.20
27671;DHT22;15077;49.704;9.908;2023-05-02T04:51:44;13.90;63.30
27671;DHT22;15077;49.704;9.908;2023-05-02T04:54:10;13.90;63.30
27671;DHT22;15077;49.704;9.908;2023-05-02T04:56:37;13.90;63.40
27671;DHT22;15077;49.704;9.908;2023-05-02T04:59:03;13.90;63.40
27671;DHT22;15077;49.704;9.908;2023-05-02T05:01:28;13.90;63.40
27671;DHT22;15077;49.704;9.908;2023-05-02T05:03:55;13.90;63.50
27671;DHT22;15077;49.704;9.908;2023-05-02T05:06:21;14.00;63.70
27671;DHT22;15077;49.704;9.908;2023-05-02T05:08:47;14.00;63.70
27671;DHT22;15077;49.704;9.908;2023-05-02T05:11:13;14.00;63.70
27671;DHT22;15077;49.704;9.908;2023-05-02T05:13:42;14.00;63.70
27671;DHT22;15077;49.704;9.908;2023-05-02T05:16:08;14.10;63.70
27671;DHT22;15077;49.704;9.908;2023-05-02T05:18:34;14.10;63.90
27671;DHT22;15077;49.704;9.908;2023-05-02T05:21:06;14.10;63.80
27671;DHT22;15077;49.704;9.908;2023-05-02T05:23:33;14.20;64.00
27671;DHT22;15077;49.704;9.908;2023-05-02T05:26:12;14.20;64.00
27671;DHT22;15077;49.704;9.908;2023-05-02T05:28:42;14.20;64.10
27671;DHT22;15077;49.704;9.908;2023-05-02T05:31:09;14.20;64.10
27671;DHT22;15077;49.704;9.908;2023-05-02T05:33:37;14.30;64.40
27671;DHT22;15077;49.704;9.908;2023-05-02T05:36:08;14.30;64.40
27671;DHT22;15077;49.704;9.908;2023-05-02T05:38:35;14.30;64.50
27671;DHT22;15077;49.704;9.908;2023-05-02T05:41:02;14.30;64.50
27671;DHT22;15077;49.704;9.908;2023-05-02T05:43:29;14.30;64.40
27671;DHT22;15077;49.704;9.908;2023-05-02T05:45:55;14.30;64.40
27671;DHT22;15077;49.704;9.908;2023-05-02T05:48:22;14.30;64.50
27671;DHT22;15077;49.704;9.908;2023-05-02T05:50:48;14.30;64.50
27671;DHT22;15077;49.704;9.908;2023-05-02T05:53:14;14.30;64.50
27671;DHT22;15077;49.704;9.908;2023-05-02T05:55:40;14.30;64.60
27671;DHT22;15077;49.704;9.908;2023-05-02T05:58:07;14.30;64.60
27671;DHT22;15077;49.704;9.908;2023-05-02T06:00:34;14.40;64.60
27671;DHT22;15077;49.704;9.908;2023-05-02T06:03:00;14.40;64.60
27671;DHT22;15077;49.704;9.908;2023-05-02T06:05:26;14.40;64.70
27671;DHT22;15077;49.704;9.908;2023-05-02T06:07:52;14.40;64.60
27671;DHT22;15077;49.704;9.908;2023-05-02T06:10:18;14.50;64.70
27671;DHT22;15077;49.704;9.908;2023-05-02T06:12:43;14.50;64.70
27671;DHT22;15077;49.704;9.908;2023-05-02T06:15:09;14.50;64.70
27671;DHT22;15077;49.704;9.908;2023-05-02T06:17:35;14.50;64.70
27671;DHT22;15077;49.704;9.908;2023-05-02T06:20:01;14.60;64.70
27671;DHT22;15077;49.704;9.908;2023-05-02T06:22:26;14.60;64.70
27671;DHT22;15077;49.704;9.908;2023-05-02T06:24:52;14.60;64.70
27671;DHT22;15077;49.704;9.908;2023-05-02T06:27:18;14.60;64.60
27671;DHT22;15077;49.704;9.908;2023-05-02T06:29:43;14.70;64.70
27671;DHT22;15077;49.704;9.908;2023-05-02T06:32:09;14.70;64.60
27671;DHT22;15077;49.704;9.908;2023-05-02T06:34:35;14.70;64.70
27671;DHT22;15077;49.704;9.908;2023-05-02T06:37:01;14.70;65.20
27671;DHT22;15077;49.704;9.908;2023-05-02T06:39:27;14.80;64.60
27671;DHT22;15077;49.704;9.908;2023-05-02T06:41:56;14.80;64.60
27671;DHT22;15077;49.704;9.908;2023-05-02T06:44:22;14.80;64.60
27671;DHT22;15077;49.704;9.908;2023-05-02T06:46:48;14.80;64.50
27671;DHT22;15077;49.704;9.908;2023-05-02T06:49:15;14.90;64.60
27671;DHT22;15077;49.704;9.908;2023-05-02T06:51:42;14.90;64.60
27671;DHT22;15077;49.704;9.908;2023-05-02T06:54:08;14.90;64.50
27671;DHT22;15077;49.704;9.908;2023-05-02T06:56:34;15.00;64.60
27671;DHT22;15077;49.704;9.908;2023-05-02T06:59:00;15.00;64.60
27671;DHT22;15077;49.704;9.908;2023-05-02T07:01:26;15.00;64.70
27671;DHT22;15077;49.704;9.908;2023-05-02T07:03:52;15.10;64.70
27671;DHT22;15077;49.704;9.908;2023-05-02T07:06:19;15.10;64.60
27671;DHT22;15077;49.704;9.908;2023-05-02T07:08:46;15.20;64.80
27671;DHT22;15077;49.704;9.908;2023-05-02T07:11:11;15.20;64.80
27671;DHT22;15077;49.704;9.908;2023-05-02T07:13:37;15.20;64.70
27671;DHT22;15077;49.704;9.908;2023-05-02T07:16:03;15.30;64.80
27671;DHT22;15077;49.704;9.908;2023-05-02T07:18:29;15.30;64.70
27671;DHT22;15077;49.704;9.908;2023-05-02T07:20:54;15.40;64.70
27671;DHT22;15077;49.704;9.908;2023-05-02T07:23:20;15.40;64.80
27671;DHT22;15077;49.704;9.908;2023-05-02T07:25:49;15.40;64.70
27671;DHT22;15077;49.704;9.908;2023-05-02T07:28:15;15.50;64.90
27671;DHT22;15077;49.704;9.908;2023-05-02T07:30:41;15.50;65.40
27671;DHT22;15077;49.704;9.908;2023-05-02T07:33:06;15.60;65.50
27671;DHT22;15077;49.704;9.908;2023-05-02T07:35:32;15.70;65.50
27671;DHT22;15077;49.704;9.908;2023-05-02T07:37:58;15.70;64.80
27671;DHT22;15077;49.704;9.908;2023-05-02T07:40:24;15.80;64.90
27671;DHT22;15077;49.704;9.908;2023-05-02T07:42:49;15.90;64.70
27671;DHT22;15077;49.704;9.908;2023-05-02T07:45:15;15.90;64.80
27671;DHT22;15077;49.704;9.908;2023-05-02T07:47:41;16.00;64.80
27671;DHT22;15077;49.704;9.908;2023-05-02T07:50:07;16.00;64.70
27671;DHT22;15077;49.704;9.908;2023-05-02T07:52:33;16.10;64.70
27671;DHT22;15077;49.704;9.908;2023-05-02T07:54:59;16.20;64.50
27671;DHT22;15077;49.704;9.908;2023-05-02T07:57:25;16.30;64.90
27671;DHT22;15077;49.704;9.908;2023-05-02T07:59:51;16.30;64.30
27671;DHT22;15077;49.704;9.908;2023-05-02T08:02:17;16.40;64.40
27671;DHT22;15077;49.704;9.908;2023-05-02T08:04:45;16.40;64.20
27671;DHT22;15077;49.704;9.908;2023-05-02T08:07:12;16.50;64.10
27671;DHT22;15077;49.704;9.908;2023-05-02T08:09:37;16.60;64.10
27671;DHT22;15077;49.704;9.908;2023-05-02T08:12:03;16.60;64.00
27671;DHT22;15077;49.704;9.908;2023-05-02T08:14:29;16.70;64.00
27671;DHT22;15077;49.704;9.908;2023-05-02T08:16:56;16.80;64.00
27671;DHT22;15077;49.704;9.908;2023-05-02T08:19:22;16.90;64.10
27671;DHT22;15077;49.704;9.908;2023-05-02T08:21:48;16.90;63.70
27671;DHT22;15077;49.704;9.908;2023-05-02T08:24:14;17.10;63.70
27671;DHT22;15077;49.704;9.908;2023-05-02T08:26:39;17.10;63.50
27671;DHT22;15077;49.704;9.908;2023-05-02T08:29:05;17.20;63.20
27671;DHT22;15077;49.704;9.908;2023-05-02T08:31:31;17.30;63.20
27671;DHT22;15077;49.704;9.908;2023-05-02T08:33:57;17.30;63.00
27671;DHT22;15077;49.704;9.908;2023-05-02T08:36:23;17.40;63.00
27671;DHT22;15077;49.704;9.908;2023-05-02T08:38:49;17.40;63.00
27671;DHT22;15077;49.704;9.908;2023-05-02T08:41:20;17.50;62.80
27671;DHT22;15077;49.704;9.908;2023-05-02T08:43:47;17.60;62.80
27671;DHT22;15077;49.704;9.908;2023-05-02T08:46:14;17.70;62.60
27671;DHT22;15077;49.704;9.908;2023-05-02T08:48:43;17.80;62.60
27671;DHT22;15077;49.704;9.908;2023-05-02T08:51:14;17.90;62.60
27671;DHT22;15077;49.704;9.908;2023-05-02T08:53:41;17.90;62.10
27671;DHT22;15077;49.704;9.908;2023-05-02T08:56:09;18.00;62.20
27671;DHT22;15077;49.704;9.908;2023-05-02T08:58:36;18.10;62.00
27671;DHT22;15077;49.704;9.908;2023-05-02T09:01:15;18.20;61.80
27671;DHT22;15077;49.704;9.908;2023-05-02T09:03:44;18.30;61.80
27671;DHT22;15077;49.704;9.908;2023-05-02T09:06:19;18.40;61.90
27671;DHT22;15077;49.704;9.908;2023-05-02T09:08:48;18.50;61.00
27671;DHT22;15077;49.704;9.908;2023-05-02T09:11:16;18.60;60.80
27671;DHT22;15077;49.704;9.908;2023-05-02T09:13:49;18.60;60.80
27671;DHT22;15077;49.704;9.908;2023-05-02T09:16:19;18.70;60.70
27671;DHT22;15077;49.704;9.908;2023-05-02T09:18:54;18.70;60.40
27671;DHT22;15077;49.704;9.908;2023-05-02T09:21:23;18.80;60.10
27671;DHT22;15077;49.704;9.908;2023-05-02T09:24:00;18.80;60.10
27671;DHT22;15077;49.704;9.908;2023-05-02T09:26:29;18.80;60.30
27671;DHT22;15077;49.704;9.908;2023-05-02T09:28:57;18.90;60.10
27671;DHT22;15077;49.704;9.908;2023-05-02T09:31:35;19.00;59.10
27671;DHT22;15077;49.704;9.908;2023-05-02T09:34:14;19.00;59.30
27671;DHT22;15077;49.704;9.908;2023-05-02T09:36:46;19.10;58.80
27671;DHT22;15077;49.704;9.908;2023-05-02T09:39:20;19.10;58.60
27671;DHT22;15077;49.704;9.908;2023-05-02T09:41:47;19.20;58.60
27671;DHT22;15077;49.704;9.908;2023-05-02T09:44:18;19.20;59.00
27671;DHT22;15077;49.704;9.908;2023-05-02T09:46:47;19.30;58.90
27671;DHT22;15077;49.704;9.908;2023-05-02T09:49:14;19.30;58.80
27671;DHT22;15077;49.704;9.908;2023-05-02T09:51:43;19.40;57.90
27671;DHT22;15077;49.704;9.908;2023-05-02T09:54:13;19.40;58.00
27671;DHT22;15077;49.704;9.908;2023-05-02T09:56:58;19.50;57.90
27671;DHT22;15077;49.704;9.908;2023-05-02T09:59:24;19.50;57.90
27671;DHT22;15077;49.704;9.908;2023-05-02T10:01:58;19.50;57.80
27671;DHT22;15077;49.704;9.908;2023-05-02T10:04:25;19.60;57.30
27671;DHT22;15077;49.704;9.908;2023-05-02T10:06:53;19.60;56.60
27671;DHT22;15077;49.704;9.908;2023-05-02T10:09:20;19.60;56.90
27671;DHT22;15077;49.704;9.908;2023-05-02T10:11:51;19.60;56.80
27671;DHT22;15077;49.704;9.908;2023-05-02T10:14:20;19.70;56.30
27671;DHT22;15077;49.704;9.908;2023-05-02T10:19:29;19.70;56.80
27671;DHT22;15077;49.704;9.908;2023-05-02T10:22:10;19.70;56.60
27671;DHT22;15077;49.704;9.908;2023-05-02T10:24:37;19.70;56.40
27671;DHT22;15077;49.704;9.908;2023-05-02T10:27:05;19.70;56.40
27671;DHT22;15077;49.704;9.908;2023-05-02T10:29:31;19.80;56.90
27671;DHT22;15077;49.704;9.908;2023-05-02T10:31:59;19.90;57.00
27671;DHT22;15077;49.704;9.908;2023-05-02T10:34:31;19.90;56.30
27671;DHT22;15077;49.704;9.908;2023-05-02T10:36:58;20.00;56.10
27671;DHT22;15077;49.704;9.908;2023-05-02T10:39:26;20.00;56.10
27671;DHT22;15077;49.704;9.908;2023-05-02T10:41:55;20.10;56.00
27671;DHT22;15077;49.704;9.908;2023-05-02T10:44:38;20.20;56.10
27671;DHT22;15077;49.704;9.908;2023-05-02T10:47:21;20.20;56.10
27671;DHT22;15077;49.704;9.908;2023-05-02T10:49:49;20.30;55.90
27671;DHT22;15077;49.704;9.908;2023-05-02T10:52:37;20.30;56.00
27671;DHT22;15077;49.704;9.908;2023-05-02T10:55:21;20.40;55.30
27671;DHT22;15077;49.704;9.908;2023-05-02T11:00:33;20.50;55.60
27671;DHT22;15077;49.704;9.908;2023-05-02T11:03:00;20.50;55.40
27671;DHT22;15077;49.704;9.908;2023-05-02T11:05:26;20.70;55.70
27671;DHT22;15077;49.704;9.908;2023-05-02T11:10:40;20.90;54.90
27671;DHT22;15077;49.704;9.908;2023-05-02T11:13:06;20.90;54.30
27671;DHT22;15077;49.704;9.908;2023-05-02T11:18:02;21.00;54.00
27671;DHT22;15077;49.704;9.908;2023-05-02T11:20:32;21.00;53.80
27671;DHT22;15077;49.704;9.908;2023-05-02T11:31:02;21.10;54.10
27671;DHT22;15077;49.704;9.908;2023-05-02T11:33:29;21.20;53.50
27671;DHT22;15077;49.704;9.908;2023-05-02T11:35:55;21.20;53.00
27671;DHT22;15077;49.704;9.908;2023-05-02T11:38:25;21.20;53.00
27671;DHT22;15077;49.704;9.908;2023-05-02T11:40:59;21.20;53.00
27671;DHT22;15077;49.704;9.908;2023-05-02T11:43:27;21.30;53.00
27671;DHT22;15077;49.704;9.908;2023-05-02T11:45:55;21.30;52.60
27671;DHT22;15077;49.704;9.908;2023-05-02T11:48:22;21.30;53.10
27671;DHT22;15077;49.704;9.908;2023-05-02T11:53:25;21.50;52.60
27671;DHT22;15077;49.704;9.908;2023-05-02T11:55:59;21.60;52.80
27671;DHT22;15077;49.704;9.908;2023-05-02T11:58:32;21.60;52.20
27671;DHT22;15077;49.704;9.908;2023-05-02T12:01:10;21.70;52.10
27671;DHT22;15077;49.704;9.908;2023-05-02T12:03:39;21.70;52.10
27671;DHT22;15077;49.704;9.908;2023-05-02T12:06:15;21.70;51.80
27671;DHT22;15077;49.704;9.908;2023-05-02T12:08:45;21.60;51.70
27671;DHT22;15077;49.704;9.908;2023-05-02T12:11:15;21.50;51.60
27671;DHT22;15077;49.704;9.908;2023-05-02T12:13:48;21.50;51.30
27671;DHT22;15077;49.704;9.908;2023-05-02T12:16:15;21.40;51.60
27671;DHT22;15077;49.704;9.908;2023-05-02T12:18:42;21.30;51.60
27671;DHT22;15077;49.704;9.908;2023-05-02T12:21:08;21.30;52.00
27671;DHT22;15077;49.704;9.908;2023-05-02T12:23:34;21.30;52.40
27671;DHT22;15077;49.704;9.908;2023-05-02T12:26:24;21.40;52.70
27671;DHT22;15077;49.704;9.908;2023-05-02T12:28:55;21.50;52.70
27671;DHT22;15077;49.704;9.908;2023-05-02T12:31:23;21.60;51.90
27671;DHT22;15077;49.704;9.908;2023-05-02T12:33:49;21.70;51.80
27671;DHT22;15077;49.704;9.908;2023-05-02T12:36:17;21.80;51.60
27671;DHT22;15077;49.704;9.908;2023-05-02T12:38:54;21.80;51.70
27671;DHT22;15077;49.704;9.908;2023-05-02T12:41:37;21.80;51.80
27671;DHT22;15077;49.704;9.908;2023-05-02T12:44:07;21.90;50.80
27671;DHT22;15077;49.704;9.908;2023-05-02T12:46:33;21.90;50.70
27671;DHT22;15077;49.704;9.908;2023-05-02T12:49:01;22.00;51.40
27671;DHT22;15077;49.704;9.908;2023-05-02T12:51:37;22.00;50.90
27671;DHT22;15077;49.704;9.908;2023-05-02T12:54:04;22.00;50.60
27671;DHT22;15077;49.704;9.908;2023-05-02T12:56:37;22.10;50.70
27671;DHT22;15077;49.704;9.908;2023-05-02T12:59:08;22.10;50.40
27671;DHT22;15077;49.704;9.908;2023-05-02T13:01:50;22.10;50.50
27671;DHT22;15077;49.704;9.908;2023-05-02T13:04:15;22.10;51.20
27671;DHT22;15077;49.704;9.908;2023-05-02T13:06:41;22.20;50.70
27671;DHT22;15077;49.704;9.908;2023-05-02T13:09:07;22.20;50.60
27671;DHT22;15077;49.704;9.908;2023-05-02T13:11:33;22.30;50.30
27671;DHT22;15077;49.704;9.908;2023-05-02T13:13:59;22.40;50.50
27671;DHT22;15077;49.704;9.908;2023-05-02T13:16:26;22.40;49.80
27671;DHT22;15077;49.704;9.908;2023-05-02T13:18:54;22.50;50.00
27671;DHT22;15077;49.704;9.908;2023-05-02T13:21:20;22.50;49.70
27671;DHT22;15077;49.704;9.908;2023-05-02T13:23:49;22.50;49.40
27671;DHT22;15077;49.704;9.908;2023-05-02T13:26:16;22.50;49.50
27671;DHT22;15077;49.704;9.908;2023-05-02T13:28:41;22.50;48.70
27671;DHT22;15077;49.704;9.908;2023-05-02T13:31:07;22.50;48.00
27671;DHT22;15077;49.704;9.908;2023-05-02T13:33:33;22.40;48.20
27671;DHT22;15077;49.704;9.908;2023-05-02T13:35:58;22.40;48.50
27671;DHT22;15077;49.704;9.908;2023-05-02T13:38:24;22.30;48.70
27671;DHT22;15077;49.704;9.908;2023-05-02T13:40:51;22.20;49.10
27671;DHT22;15077;49.704;9.908;2023-05-02T13:43:18;22.20;49.20
27671;DHT22;15077;49.704;9.908;2023-05-02T13:45:44;22.20;49.40
27671;DHT22;15077;49.704;9.908;2023-05-02T13:48:11;22.10;49.50
27671;DHT22;15077;49.704;9.908;2023-05-02T13:50:37;22.10;49.70
27671;DHT22;15077;49.704;9.908;2023-05-02T13:53:03;22.00;49.80
27671;DHT22;15077;49.704;9.908;2023-05-02T13:55:29;22.00;49.60
27671;DHT22;15077;49.704;9.908;2023-05-02T13:57:55;22.00;50.00
27671;DHT22;15077;49.704;9.908;2023-05-02T14:00:20;22.00;49.40
27671;DHT22;15077;49.704;9.908;2023-05-02T14:02:46;22.00;49.60
27671;DHT22;15077;49.704;9.908;2023-05-02T14:05:13;21.90;49.50
27671;DHT22;15077;49.704;9.908;2023-05-02T14:07:39;21.90;49.60
27671;DHT22;15077;49.704;9.908;2023-05-02T14:10:05;22.00;49.40
27671;DHT22;15077;49.704;9.908;2023-05-02T14:12:32;22.00;48.60
27671;DHT22;15077;49.704;9.908;2023-05-02T14:14:57;22.00;48.60
27671;DHT22;15077;49.704;9.908;2023-05-02T14:17:23;22.00;48.50
27671;DHT22;15077;49.704;9.908;2023-05-02T14:19:51;21.90;48.60
27671;DHT22;15077;49.704;9.908;2023-05-02T14:22:17;22.00;48.50
27671;DHT22;15077;49.704;9.908;2023-05-02T14:24:43;22.00;48.60
27671;DHT22;15077;49.704;9.908;2023-05-02T14:27:09;22.00;48.60
27671;DHT22;15077;49.704;9.908;2023-05-02T14:29:46;22.10;48.90
27671;DHT22;15077;49.704;9.908;2023-05-02T14:32:12;22.20;49.00
27671;DHT22;15077;49.704;9.908;2023-05-02T14:34:39;22.30;48.60
27671;DHT22;15077;49.704;9.908;2023-05-02T14:37:05;22.40;48.00
27671;DHT22;15077;49.704;9.908;2023-05-02T14:39:33;22.50;47.60
27671;DHT22;15077;49.704;9.908;2023-05-02T14:41:59;22.60;47.20
27671;DHT22;15077;49.704;9.908;2023-05-02T14:44:27;22.60;46.80
27671;DHT22;15077;49.704;9.908;2023-05-02T14:46:53;22.60;47.00
27671;DHT22;15077;49.704;9.908;2023-05-02T14:49:22;22.60;46.90
27671;DHT22;15077;49.704;9.908;2023-05-02T14:51:50;22.60;47.10
27671;DHT22;15077;49.704;9.908;2023-05-02T14:54:16;22.60;47.00
27671;DHT22;15077;49.704;9.908;2023-05-02T14:56:42;22.60;47.80
27671;DHT22;15077;49.704;9.908;2023-05-02T14:59:08;22.60;47.10
27671;DHT22;15077;49.704;9.908;2023-05-02T15:01:33;22.50;47.10
27671;DHT22;15077;49.704;9.908;2023-05-02T15:03:59;22.50;47.30
27671;DHT22;15077;49.704;9.908;2023-05-02T15:06:28;22.50;47.50
27671;DHT22;15077;49.704;9.908;2023-05-02T15:08:57;22.50;47.60
27671;DHT22;15077;49.704;9.908;2023-05-02T15:11:23;22.60;47.70
27671;DHT22;15077;49.704;9.908;2023-05-02T15:13:49;22.60;48.10
27671;DHT22;15077;49.704;9.908;2023-05-02T15:16:15;22.60;47.70
27671;DHT22;15077;49.704;9.908;2023-05-02T15:18:41;22.70;47.30
27671;DHT22;15077;49.704;9.908;2023-05-02T15:21:07;22.60;47.20
27671;DHT22;15077;49.704;9.908;2023-05-02T15:23:33;22.70;47.20
27671;DHT22;15077;49.704;9.908;2023-05-02T15:25:58;22.60;47.10
27671;DHT22;15077;49.704;9.908;2023-05-02T15:28:24;22.70;47.10
27671;DHT22;15077;49.704;9.908;2023-05-02T15:30:50;22.60;47.20
27671;DHT22;15077;49.704;9.908;2023-05-02T15:33:16;22.60;47.10
27671;DHT22;15077;49.704;9.908;2023-05-02T15:35:55;22.60;47.40
27671;DHT22;15077;49.704;9.908;2023-05-02T15:38:25;22.60;47.50
27671;DHT22;15077;49.704;9.908;2023-05-02T15:40:55;22.70;47.50
27671;DHT22;15077;49.704;9.908;2023-05-02T15:43:22;22.70;47.50
27671;DHT22;15077;49.704;9.908;2023-05-02T15:45:50;22.70;47.30
27671;DHT22;15077;49.704;9.908;2023-05-02T15:48:21;22.70;47.40
27671;DHT22;15077;49.704;9.908;2023-05-02T15:50:47;22.70;47.00
27671;DHT22;15077;49.704;9.908;2023-05-02T15:53:16;22.70;47.10
27671;DHT22;15077;49.704;9.908;2023-05-02T15:55:43;22.70;46.90
27671;DHT22;15077;49.704;9.908;2023-05-02T15:58:13;22.70;46.90
27671;DHT22;15077;49.704;9.908;2023-05-02T16:00:41;22.70;46.60
27671;DHT22;15077;49.704;9.908;2023-05-02T16:03:07;22.60;46.70
27671;DHT22;15077;49.704;9.908;2023-05-02T16:05:33;22.60;46.90
27671;DHT22;15077;49.704;9.908;2023-05-02T16:08:00;22.50;47.10
27671;DHT22;15077;49.704;9.908;2023-05-02T16:10:26;22.50;47.20
27671;DHT22;15077;49.704;9.908;2023-05-02T16:12:52;22.50;47.30
27671;DHT22;15077;49.704;9.908;2023-05-02T16:15:18;22.50;47.00
27671;DHT22;15077;49.704;9.908;2023-05-02T16:17:44;22.50;46.50